sensor_id;sensor_type;location;lat;lon;timestamp;P1;durP1;ratioP1;P2;durP2;ratioP2
29422;SDS011;16399;51.686;8.684;2023-11-21T00:00:19;12.50;;;5.03;;
29422;SDS011;16399;51.686;8.684;2023-11-21T00:03:21;12.15;;;4.97;;
29422;SDS011;16399;51.686;8.684;2023-11-21T00:06:24;10.18;;;5.00;;
29422;SDS011;16399;51.686;8.684;2023-11-21T00:09:26;9.35;;;5.15;;
29422;SDS011;16399;51.686;8.684;2023-11-21T00:12:28;11.88;;;4.90;;
29422;SDS011;16399;51.686;8.684;2023-11-21T00:15:31;10.03;;;5.10;;
29422;SDS011;16399;51.686;8.684;2023-11-21T00:18:33;12.10;;;4.85;;
29422;SDS011;16399;51.686;8.684;2023-11-21T00:21:36;11.60;;;4.67;;
29422;SDS011;16399;51.686;8.684;2023-11-21T00:24:38;10.35;;;4.65;;
29422;SDS011;16399;51.686;8.684;2023-11-21T00:27:41;10.18;;;4.55;;
29422;SDS011;16399;51.686;8.684;2023-11-21T00:30:44;11.20;;;5.60;;
29422;SDS011;16399;51.686;8.684;2023-11-21T00:33:46;10.28;;;5.15;;
29422;SDS011;16399;51.686;8.684;2023-11-21T00:36:48;11.53;;;5.05;;
29422;SDS011;16399;51.686;8.684;2023-11-21T00:39:50;18.85;;;6.40;;
29422;SDS011;16399;51.686;8.684;2023-11-21T00:42:53;14.68;;;6.33;;
29422;SDS011;16399;51.686;8.684;2023-11-21T00:45:56;12.15;;;6.08;;
29422;SDS011;16399;51.686;8.684;2023-11-21T00:48:58;13.80;;;6.83;;
29422;SDS011;16399;51.686;8.684;2023-11-21T00:52:01;15.88;;;6.80;;
29422;SDS011;16399;51.686;8.684;2023-11-21T00:55:04;17.23;;;7.05;;
29422;SDS011;16399;51.686;8.684;2023-11-21T00:58:07;12.43;;;7.08;;
29422;SDS011;16399;51.686;8.684;2023-11-21T01:01:10;12.75;;;6.62;;
29422;SDS011;16399;51.686;8.684;2023-11-21T01:04:13;14.35;;;6.67;;
29422;SDS011;16399;51.686;8.684;2023-11-21T01:07:15;11.80;;;6.62;;
29422;SDS011;16399;51.686;8.684;2023-11-21T01:10:19;9.58;;;6.15;;
29422;SDS011;16399;51.686;8.684;2023-11-21T01:13:21;14.95;;;6.75;;
29422;SDS011;16399;51.686;8.684;2023-11-21T01:16:23;10.65;;;6.08;;
29422;SDS011;16399;51.686;8.684;2023-11-21T01:19:26;11.68;;;5.97;;
29422;SDS011;16399;51.686;8.684;2023-11-21T01:22:29;14.65;;;6.03;;
29422;SDS011;16399;51.686;8.684;2023-11-21T01:25:31;12.60;;;5.55;;
29422;SDS011;16399;51.686;8.684;2023-11-21T01:28:33;11.78;;;5.78;;
29422;SDS011;16399;51.686;8.684;2023-11-21T01:31:36;8.73;;;5.15;;
29422;SDS011;16399;51.686;8.684;2023-11-21T01:34:38;9.23;;;5.53;;
29422;SDS011;16399;51.686;8.684;2023-11-21T01:37:40;10.50;;;5.35;;
29422;SDS011;16399;51.686;8.684;2023-11-21T01:40:43;11.18;;;5.42;;
29422;SDS011;16399;51.686;8.684;2023-11-21T01:43:45;14.07;;;5.55;;
29422;SDS011;16399;51.686;8.684;2023-11-21T01:46:47;8.80;;;5.00;;
29422;SDS011;16399;51.686;8.684;2023-11-21T01:49:49;12.73;;;5.03;;
29422;SDS011;16399;51.686;8.684;2023-11-21T01:52:52;10.08;;;4.53;;
29422;SDS011;16399;51.686;8.684;2023-11-21T01:55:55;14.90;;;5.55;;
29422;SDS011;16399;51.686;8.684;2023-11-21T01:58:58;12.28;;;5.53;;
29422;SDS011;16399;51.686;8.684;2023-11-21T02:02:00;11.05;;;5.37;;
29422;SDS011;16399;51.686;8.684;2023-11-21T02:05:04;12.33;;;4.83;;
29422;SDS011;16399;51.686;8.684;2023-11-21T02:08:08;12.68;;;5.85;;
29422;SDS011;16399;51.686;8.684;2023-11-21T02:11:11;10.43;;;4.60;;
29422;SDS011;16399;51.686;8.684;2023-11-21T02:14:13;8.03;;;4.75;;
29422;SDS011;16399;51.686;8.684;2023-11-21T02:17:16;14.15;;;4.75;;
29422;SDS011;16399;51.686;8.684;2023-11-21T02:20:18;14.20;;;4.87;;
29422;SDS011;16399;51.686;8.684;2023-11-21T02:23:23;9.58;;;4.80;;
29422;SDS011;16399;51.686;8.684;2023-11-21T02:26:27;13.40;;;5.10;;
29422;SDS011;16399;51.686;8.684;2023-11-21T02:29:29;11.20;;;5.05;;
29422;SDS011;16399;51.686;8.684;2023-11-21T02:32:31;13.00;;;4.65;;
29422;SDS011;16399;51.686;8.684;2023-11-21T02:35:34;12.73;;;4.80;;
29422;SDS011;16399;51.686;8.684;2023-11-21T02:38:38;8.90;;;4.60;;
29422;SDS011;16399;51.686;8.684;2023-11-21T02:41:40;12.82;;;5.15;;
29422;SDS011;16399;51.686;8.684;2023-11-21T02:44:43;13.05;;;4.60;;
29422;SDS011;16399;51.686;8.684;2023-11-21T02:47:45;12.00;;;5.25;;
29422;SDS011;16399;51.686;8.684;2023-11-21T02:50:48;6.42;;;3.92;;
29422;SDS011;16399;51.686;8.684;2023-11-21T02:53:51;11.12;;;4.37;;
29422;SDS011;16399;51.686;8.684;2023-11-21T02:56:53;10.32;;;4.42;;
29422;SDS011;16399;51.686;8.684;2023-11-21T02:59:55;7.70;;;4.70;;
29422;SDS011;16399;51.686;8.684;2023-11-21T03:02:58;10.05;;;4.85;;
29422;SDS011;16399;51.686;8.684;2023-11-21T03:06:01;12.23;;;4.87;;
29422;SDS011;16399;51.686;8.684;2023-11-21T03:09:05;11.57;;;4.20;;
29422;SDS011;16399;51.686;8.684;2023-11-21T03:12:07;13.75;;;5.10;;
29422;SDS011;16399;51.686;8.684;2023-11-21T03:15:12;14.95;;;4.50;;
29422;SDS011;16399;51.686;8.684;2023-11-21T03:18:15;8.23;;;4.62;;
29422;SDS011;16399;51.686;8.684;2023-11-21T03:21:17;13.20;;;5.20;;
29422;SDS011;16399;51.686;8.684;2023-11-21T03:24:20;11.20;;;4.72;;
29422;SDS011;16399;51.686;8.684;2023-11-21T03:27:23;11.93;;;4.70;;
29422;SDS011;16399;51.686;8.684;2023-11-21T03:30:25;12.03;;;4.92;;
29422;SDS011;16399;51.686;8.684;2023-11-21T03:33:27;8.63;;;4.55;;
29422;SDS011;16399;51.686;8.684;2023-11-21T03:36:29;11.88;;;4.53;;
29422;SDS011;16399;51.686;8.684;2023-11-21T03:39:32;8.70;;;4.80;;
29422;SDS011;16399;51.686;8.684;2023-11-21T03:42:34;10.45;;;5.00;;
29422;SDS011;16399;51.686;8.684;2023-11-21T03:45:37;11.70;;;5.80;;
29422;SDS011;16399;51.686;8.684;2023-11-21T03:48:41;9.83;;;4.45;;
29422;SDS011;16399;51.686;8.684;2023-11-21T03:51:43;9.25;;;4.90;;
29422;SDS011;16399;51.686;8.684;2023-11-21T03:54:45;11.50;;;5.60;;
29422;SDS011;16399;51.686;8.684;2023-11-21T03:57:47;10.10;;;4.70;;
29422;SDS011;16399;51.686;8.684;2023-11-21T04:00:50;14.78;;;4.65;;
29422;SDS011;16399;51.686;8.684;2023-11-21T04:03:53;15.38;;;5.08;;
29422;SDS011;16399;51.686;8.684;2023-11-21T04:06:55;13.38;;;5.00;;
29422;SDS011;16399;51.686;8.684;2023-11-21T04:09:57;11.53;;;4.97;;
29422;SDS011;16399;51.686;8.684;2023-11-21T04:13:00;17.23;;;4.97;;
29422;SDS011;16399;51.686;8.684;2023-11-21T04:16:02;11.85;;;5.60;;
29422;SDS011;16399;51.686;8.684;2023-11-21T04:19:05;8.33;;;4.55;;
29422;SDS011;16399;51.686;8.684;2023-11-21T04:22:07;12.10;;;4.72;;
29422;SDS011;16399;51.686;8.684;2023-11-21T04:25:15;13.13;;;5.25;;
29422;SDS011;16399;51.686;8.684;2023-11-21T04:28:17;12.40;;;4.90;;
29422;SDS011;16399;51.686;8.684;2023-11-21T04:31:20;10.93;;;5.05;;
29422;SDS011;16399;51.686;8.684;2023-11-21T04:34:22;12.00;;;5.00;;
29422;SDS011;16399;51.686;8.684;2023-11-21T04:37:25;17.55;;;5.17;;
29422;SDS011;16399;51.686;8.684;2023-11-21T04:40:27;11.80;;;5.53;;
29422;SDS011;16399;51.686;8.684;2023-11-21T04:43:29;13.85;;;5.85;;
29422;SDS011;16399;51.686;8.684;2023-11-21T04:46:31;13.70;;;5.33;;
29422;SDS011;16399;51.686;8.684;2023-11-21T04:49:34;11.38;;;4.85;;
29422;SDS011;16399;51.686;8.684;2023-11-21T04:52:36;11.40;;;5.08;;
29422;SDS011;16399;51.686;8.684;2023-11-21T04:55:38;8.68;;;4.42;;
29422;SDS011;16399;51.686;8.684;2023-11-21T04:58:41;10.82;;;5.05;;
29422;SDS011;16399;51.686;8.684;2023-11-21T05:01:43;9.60;;;5.22;;
29422;SDS011;16399;51.686;8.684;2023-11-21T05:04:45;16.23;;;5.28;;
29422;SDS011;16399;51.686;8.684;2023-11-21T05:07:48;10.23;;;4.87;;
29422;SDS011;16399;51.686;8.684;2023-11-21T05:10:50;11.12;;;5.08;;
29422;SDS011;16399;51.686;8.684;2023-11-21T05:13:54;11.48;;;4.72;;
29422;SDS011;16399;51.686;8.684;2023-11-21T05:17:00;12.78;;;5.25;;
29422;SDS011;16399;51.686;8.684;2023-11-21T05:20:04;11.90;;;5.17;;
29422;SDS011;16399;51.686;8.684;2023-11-21T05:23:08;10.50;;;4.78;;
29422;SDS011;16399;51.686;8.684;2023-11-21T05:26:11;13.10;;;5.45;;
29422;SDS011;16399;51.686;8.684;2023-11-21T05:29:13;10.70;;;5.00;;
29422;SDS011;16399;51.686;8.684;2023-11-21T05:32:15;13.62;;;5.55;;
29422;SDS011;16399;51.686;8.684;2023-11-21T05:35:18;12.35;;;5.65;;
29422;SDS011;16399;51.686;8.684;2023-11-21T05:38:20;10.48;;;4.67;;
29422;SDS011;16399;51.686;8.684;2023-11-21T05:41:22;14.20;;;5.47;;
29422;SDS011;16399;51.686;8.684;2023-11-21T05:44:26;9.75;;;5.15;;
29422;SDS011;16399;51.686;8.684;2023-11-21T05:47:28;15.23;;;6.28;;
29422;SDS011;16399;51.686;8.684;2023-11-21T05:50:30;12.13;;;4.50;;
29422;SDS011;16399;51.686;8.684;2023-11-21T05:53:33;14.65;;;5.10;;
29422;SDS011;16399;51.686;8.684;2023-11-21T05:56:35;8.13;;;4.78;;
29422;SDS011;16399;51.686;8.684;2023-11-21T05:59:38;8.53;;;4.60;;
29422;SDS011;16399;51.686;8.684;2023-11-21T06:02:40;12.28;;;5.08;;
29422;SDS011;16399;51.686;8.684;2023-11-21T06:05:43;14.95;;;5.03;;
29422;SDS011;16399;51.686;8.684;2023-11-21T06:08:45;18.87;;;6.05;;
29422;SDS011;16399;51.686;8.684;2023-11-21T06:11:47;21.00;;;7.70;;
29422;SDS011;16399;51.686;8.684;2023-11-21T06:14:49;16.60;;;7.75;;
29422;SDS011;16399;51.686;8.684;2023-11-21T06:17:52;16.27;;;8.10;;
29422;SDS011;16399;51.686;8.684;2023-11-21T06:20:54;17.82;;;8.93;;
29422;SDS011;16399;51.686;8.684;2023-11-21T06:23:56;30.43;;;16.35;;
29422;SDS011;16399;51.686;8.684;2023-11-21T06:26:59;22.60;;;11.20;;
29422;SDS011;16399;51.686;8.684;2023-11-21T06:30:01;20.55;;;10.82;;
29422;SDS011;16399;51.686;8.684;2023-11-21T06:33:04;22.40;;;10.30;;
29422;SDS011;16399;51.686;8.684;2023-11-21T06:36:07;22.75;;;10.43;;
29422;SDS011;16399;51.686;8.684;2023-11-21T06:39:11;20.65;;;10.20;;
29422;SDS011;16399;51.686;8.684;2023-11-21T06:42:15;19.33;;;10.60;;
29422;SDS011;16399;51.686;8.684;2023-11-21T06:45:18;20.12;;;11.08;;
29422;SDS011;16399;51.686;8.684;2023-11-21T06:48:20;18.42;;;10.82;;
29422;SDS011;16399;51.686;8.684;2023-11-21T06:51:23;21.65;;;10.13;;
29422;SDS011;16399;51.686;8.684;2023-11-21T06:54:26;20.95;;;8.83;;
29422;SDS011;16399;51.686;8.684;2023-11-21T06:57:28;23.40;;;10.48;;
29422;SDS011;16399;51.686;8.684;2023-11-21T07:00:31;20.05;;;10.50;;
29422;SDS011;16399;51.686;8.684;2023-11-21T07:03:34;24.67;;;10.70;;
29422;SDS011;16399;51.686;8.684;2023-11-21T07:06:37;21.02;;;10.25;;
29422;SDS011;16399;51.686;8.684;2023-11-21T07:09:40;19.98;;;9.43;;
29422;SDS011;16399;51.686;8.684;2023-11-21T07:12:42;22.67;;;10.13;;
29422;SDS011;16399;51.686;8.684;2023-11-21T07:15:45;20.72;;;10.30;;
29422;SDS011;16399;51.686;8.684;2023-11-21T07:18:47;17.67;;;10.15;;
29422;SDS011;16399;51.686;8.684;2023-11-21T07:21:49;21.50;;;10.28;;
29422;SDS011;16399;51.686;8.684;2023-11-21T07:24:52;22.20;;;10.45;;
29422;SDS011;16399;51.686;8.684;2023-11-21T07:27:54;24.70;;;11.30;;
29422;SDS011;16399;51.686;8.684;2023-11-21T07:30:56;20.55;;;10.50;;
29422;SDS011;16399;51.686;8.684;2023-11-21T07:34:00;19.27;;;10.60;;
29422;SDS011;16399;51.686;8.684;2023-11-21T07:37:03;21.48;;;11.53;;
29422;SDS011;16399;51.686;8.684;2023-11-21T07:40:05;23.83;;;11.48;;
29422;SDS011;16399;51.686;8.684;2023-11-21T07:43:09;22.02;;;11.50;;
29422;SDS011;16399;51.686;8.684;2023-11-21T07:46:11;27.50;;;11.28;;
29422;SDS011;16399;51.686;8.684;2023-11-21T07:49:14;22.35;;;12.05;;
29422;SDS011;16399;51.686;8.684;2023-11-21T07:52:17;23.65;;;11.15;;
29422;SDS011;16399;51.686;8.684;2023-11-21T07:55:21;25.90;;;10.93;;
29422;SDS011;16399;51.686;8.684;2023-11-21T07:58:25;19.95;;;12.00;;
29422;SDS011;16399;51.686;8.684;2023-11-21T08:01:27;25.17;;;12.03;;
29422;SDS011;16399;51.686;8.684;2023-11-21T08:04:30;23.45;;;12.30;;
29422;SDS011;16399;51.686;8.684;2023-11-21T08:07:33;26.10;;;12.05;;
29422;SDS011;16399;51.686;8.684;2023-11-21T08:10:35;24.27;;;11.80;;
29422;SDS011;16399;51.686;8.684;2023-11-21T08:13:38;30.08;;;12.88;;
29422;SDS011;16399;51.686;8.684;2023-11-21T08:16:40;23.80;;;12.70;;
29422;SDS011;16399;51.686;8.684;2023-11-21T08:19:42;31.00;;;13.80;;
29422;SDS011;16399;51.686;8.684;2023-11-21T08:22:45;31.60;;;14.07;;
29422;SDS011;16399;51.686;8.684;2023-11-21T08:25:48;34.50;;;15.13;;
29422;SDS011;16399;51.686;8.684;2023-11-21T08:28:50;30.50;;;14.60;;
29422;SDS011;16399;51.686;8.684;2023-11-21T08:31:57;36.38;;;15.30;;
29422;SDS011;16399;51.686;8.684;2023-11-21T08:35:00;41.10;;;16.27;;
29422;SDS011;16399;51.686;8.684;2023-11-21T08:38:03;38.15;;;16.73;;
29422;SDS011;16399;51.686;8.684;2023-11-21T08:41:05;41.68;;;18.27;;
29422;SDS011;16399;51.686;8.684;2023-11-21T08:44:08;48.90;;;19.75;;
29422;SDS011;16399;51.686;8.684;2023-11-21T08:47:11;46.60;;;17.70;;
29422;SDS011;16399;51.686;8.684;2023-11-21T08:50:14;48.48;;;19.80;;
29422;SDS011;16399;51.686;8.684;2023-11-21T08:53:17;39.20;;;18.07;;
29422;SDS011;16399;51.686;8.684;2023-11-21T08:56:19;42.45;;;17.75;;
29422;SDS011;16399;51.686;8.684;2023-11-21T08:59:21;48.50;;;18.15;;
29422;SDS011;16399;51.686;8.684;2023-11-21T09:02:27;37.60;;;16.77;;
29422;SDS011;16399;51.686;8.684;2023-11-21T09:05:29;37.15;;;16.80;;
29422;SDS011;16399;51.686;8.684;2023-11-21T09:08:32;35.92;;;16.45;;
29422;SDS011;16399;51.686;8.684;2023-11-21T09:11:34;42.40;;;17.05;;
29422;SDS011;16399;51.686;8.684;2023-11-21T09:14:36;37.15;;;16.27;;
29422;SDS011;16399;51.686;8.684;2023-11-21T09:17:39;37.50;;;15.53;;
29422;SDS011;16399;51.686;8.684;2023-11-21T09:20:43;32.58;;;13.43;;
29422;SDS011;16399;51.686;8.684;2023-11-21T09:23:45;24.75;;;13.08;;
29422;SDS011;16399;51.686;8.684;2023-11-21T09:26:48;24.55;;;11.97;;
29422;SDS011;16399;51.686;8.684;2023-11-21T09:29:51;23.30;;;11.05;;
29422;SDS011;16399;51.686;8.684;2023-11-21T09:32:55;22.62;;;12.18;;
29422;SDS011;16399;51.686;8.684;2023-11-21T09:35:59;22.22;;;11.70;;
29422;SDS011;16399;51.686;8.684;2023-11-21T09:39:01;20.85;;;11.15;;
29422;SDS011;16399;51.686;8.684;2023-11-21T09:42:30;22.73;;;11.20;;
29422;SDS011;16399;51.686;8.684;2023-11-21T09:45:36;20.10;;;10.05;;
29422;SDS011;16399;51.686;8.684;2023-11-21T09:48:41;18.45;;;9.45;;
29422;SDS011;16399;51.686;8.684;2023-11-21T09:51:44;17.82;;;9.80;;
29422;SDS011;16399;51.686;8.684;2023-11-21T09:54:48;17.55;;;9.18;;
29422;SDS011;16399;51.686;8.684;2023-11-21T09:57:52;20.63;;;10.30;;
29422;SDS011;16399;51.686;8.684;2023-11-21T10:00:55;18.55;;;9.65;;
29422;SDS011;16399;51.686;8.684;2023-11-21T10:04:01;19.32;;;9.68;;
29422;SDS011;16399;51.686;8.684;2023-11-21T10:07:03;17.25;;;8.53;;
29422;SDS011;16399;51.686;8.684;2023-11-21T10:10:08;17.40;;;8.73;;
29422;SDS011;16399;51.686;8.684;2023-11-21T10:13:11;19.90;;;9.70;;
29422;SDS011;16399;51.686;8.684;2023-11-21T10:16:17;21.40;;;8.78;;
29422;SDS011;16399;51.686;8.684;2023-11-21T10:19:24;15.32;;;8.23;;
29422;SDS011;16399;51.686;8.684;2023-11-21T10:22:27;16.95;;;9.30;;
29422;SDS011;16399;51.686;8.684;2023-11-21T10:25:30;21.52;;;8.98;;
29422;SDS011;16399;51.686;8.684;2023-11-21T10:28:35;17.80;;;9.93;;
29422;SDS011;16399;51.686;8.684;2023-11-21T10:31:39;18.25;;;9.98;;
29422;SDS011;16399;51.686;8.684;2023-11-21T10:34:41;18.52;;;10.53;;
29422;SDS011;16399;51.686;8.684;2023-11-21T10:37:43;21.35;;;11.85;;
29422;SDS011;16399;51.686;8.684;2023-11-21T10:40:45;20.77;;;11.45;;
29422;SDS011;16399;51.686;8.684;2023-11-21T10:43:49;20.48;;;10.55;;
29422;SDS011;16399;51.686;8.684;2023-11-21T10:46:56;26.35;;;11.40;;
29422;SDS011;16399;51.686;8.684;2023-11-21T10:50:00;24.92;;;12.00;;
29422;SDS011;16399;51.686;8.684;2023-11-21T10:53:05;22.40;;;12.33;;
29422;SDS011;16399;51.686;8.684;2023-11-21T10:56:08;27.02;;;12.28;;
29422;SDS011;16399;51.686;8.684;2023-11-21T10:59:18;23.98;;;12.37;;
29422;SDS011;16399;51.686;8.684;2023-11-21T11:02:25;22.32;;;12.40;;
29422;SDS011;16399;51.686;8.684;2023-11-21T11:05:31;26.57;;;13.35;;
29422;SDS011;16399;51.686;8.684;2023-11-21T11:08:34;24.45;;;12.40;;
29422;SDS011;16399;51.686;8.684;2023-11-21T11:11:39;26.93;;;13.00;;
29422;SDS011;16399;51.686;8.684;2023-11-21T11:14:42;22.03;;;10.97;;
29422;SDS011;16399;51.686;8.684;2023-11-21T11:17:45;22.75;;;10.70;;
29422;SDS011;16399;51.686;8.684;2023-11-21T11:20:48;20.70;;;10.53;;
29422;SDS011;16399;51.686;8.684;2023-11-21T11:24:12;20.82;;;10.85;;
29422;SDS011;16399;51.686;8.684;2023-11-21T11:34:04;21.15;;;11.00;;
29422;SDS011;16399;51.686;8.684;2023-11-21T11:37:20;20.00;;;10.20;;
29422;SDS011;16399;51.686;8.684;2023-11-21T11:40:25;20.10;;;10.40;;
29422;SDS011;16399;51.686;8.684;2023-11-21T11:43:29;20.88;;;9.93;;
29422;SDS011;16399;51.686;8.684;2023-11-21T11:46:43;19.12;;;10.23;;
29422;SDS011;16399;51.686;8.684;2023-11-21T11:53:13;20.95;;;9.80;;
29422;SDS011;16399;51.686;8.684;2023-11-21T11:56:20;17.02;;;9.65;;
29422;SDS011;16399;51.686;8.684;2023-11-21T11:59:26;20.92;;;10.32;;
29422;SDS011;16399;51.686;8.684;2023-11-21T12:02:28;16.55;;;9.50;;
29422;SDS011;16399;51.686;8.684;2023-11-21T12:05:32;16.42;;;8.10;;
29422;SDS011;16399;51.686;8.684;2023-11-21T12:08:39;18.95;;;7.85;;
29422;SDS011;16399;51.686;8.684;2023-11-21T12:11:42;12.15;;;7.35;;
29422;SDS011;16399;51.686;8.684;2023-11-21T12:14:45;11.15;;;7.00;;
29422;SDS011;16399;51.686;8.684;2023-11-21T12:17:48;12.58;;;6.90;;
29422;SDS011;16399;51.686;8.684;2023-11-21T12:20:51;10.72;;;5.95;;
29422;SDS011;16399;51.686;8.684;2023-11-21T12:23:53;12.10;;;6.72;;
29422;SDS011;16399;51.686;8.684;2023-11-21T12:26:55;11.18;;;6.17;;
29422;SDS011;16399;51.686;8.684;2023-11-21T12:29:58;12.85;;;5.90;;
29422;SDS011;16399;51.686;8.684;2023-11-21T12:33:00;10.48;;;5.35;;
29422;SDS011;16399;51.686;8.684;2023-11-21T12:36:03;11.20;;;6.20;;
29422;SDS011;16399;51.686;8.684;2023-11-21T12:39:06;18.47;;;6.80;;
29422;SDS011;16399;51.686;8.684;2023-11-21T12:42:10;6.72;;;3.95;;
29422;SDS011;16399;51.686;8.684;2023-11-21T12:48:20;5.10;;;3.25;;
29422;SDS011;16399;51.686;8.684;2023-11-21T12:51:25;6.47;;;3.92;;
29422;SDS011;16399;51.686;8.684;2023-11-21T12:54:27;4.00;;;2.50;;
29422;SDS011;16399;51.686;8.684;2023-11-21T12:57:30;3.98;;;2.40;;
29422;SDS011;16399;51.686;8.684;2023-11-21T13:00:33;3.75;;;2.37;;
29422;SDS011;16399;51.686;8.684;2023-11-21T13:03:39;3.17;;;1.92;;
29422;SDS011;16399;51.686;8.684;2023-11-21T13:06:43;8.23;;;1.90;;
29422;SDS011;16399;51.686;8.684;2023-11-21T13:09:45;3.85;;;2.25;;
29422;SDS011;16399;51.686;8.684;2023-11-21T13:12:47;5.40;;;2.25;;
29422;SDS011;16399;51.686;8.684;2023-11-21T13:18:57;5.33;;;2.77;;
29422;SDS011;16399;51.686;8.684;2023-11-21T13:21:59;5.10;;;2.65;;
29422;SDS011;16399;51.686;8.684;2023-11-21T13:25:03;4.28;;;2.80;;
29422;SDS011;16399;51.686;8.684;2023-11-21T13:28:08;6.65;;;3.83;;
29422;SDS011;16399;51.686;8.684;2023-11-21T13:31:13;8.03;;;3.98;;
29422;SDS011;16399;51.686;8.684;2023-11-21T13:34:23;5.50;;;3.70;;
29422;SDS011;16399;51.686;8.684;2023-11-21T13:37:27;7.17;;;4.42;;
29422;SDS011;16399;51.686;8.684;2023-11-21T13:40:31;7.10;;;4.35;;
29422;SDS011;16399;51.686;8.684;2023-11-21T13:46:37;6.72;;;3.90;;
29422;SDS011;16399;51.686;8.684;2023-11-21T13:49:40;7.08;;;4.55;;
29422;SDS011;16399;51.686;8.684;2023-11-21T13:52:43;6.30;;;3.70;;
29422;SDS011;16399;51.686;8.684;2023-11-21T13:55:46;5.97;;;3.80;;
29422;SDS011;16399;51.686;8.684;2023-11-21T13:58:50;6.85;;;3.50;;
29422;SDS011;16399;51.686;8.684;2023-11-21T14:01:52;7.75;;;3.47;;
29422;SDS011;16399;51.686;8.684;2023-11-21T14:04:59;7.75;;;3.50;;
29422;SDS011;16399;51.686;8.684;2023-11-21T14:08:03;9.20;;;4.03;;
29422;SDS011;16399;51.686;8.684;2023-11-21T14:11:06;7.42;;;3.85;;
29422;SDS011;16399;51.686;8.684;2023-11-21T14:14:10;8.83;;;4.30;;
29422;SDS011;16399;51.686;8.684;2023-11-21T14:17:12;9.98;;;5.28;;
29422;SDS011;16399;51.686;8.684;2023-11-21T14:20:15;10.13;;;4.97;;
29422;SDS011;16399;51.686;8.684;2023-11-21T14:23:18;10.80;;;5.83;;
29422;SDS011;16399;51.686;8.684;2023-11-21T14:26:22;10.45;;;6.28;;
29422;SDS011;16399;51.686;8.684;2023-11-21T14:29:25;10.25;;;6.17;;
29422;SDS011;16399;51.686;8.684;2023-11-21T14:32:28;11.70;;;5.92;;
29422;SDS011;16399;51.686;8.684;2023-11-21T14:35:31;10.85;;;5.83;;
29422;SDS011;16399;51.686;8.684;2023-11-21T14:38:35;12.65;;;6.85;;
29422;SDS011;16399;51.686;8.684;2023-11-21T14:41:39;14.80;;;7.40;;
29422;SDS011;16399;51.686;8.684;2023-11-21T14:44:43;12.05;;;6.42;;
29422;SDS011;16399;51.686;8.684;2023-11-21T14:47:48;14.60;;;7.15;;
29422;SDS011;16399;51.686;8.684;2023-11-21T14:50:52;10.38;;;6.10;;
29422;SDS011;16399;51.686;8.684;2023-11-21T14:54:05;11.08;;;6.37;;
29422;SDS011;16399;51.686;8.684;2023-11-21T14:57:11;11.40;;;6.12;;
29422;SDS011;16399;51.686;8.684;2023-11-21T15:00:22;10.58;;;5.90;;
29422;SDS011;16399;51.686;8.684;2023-11-21T15:03:38;11.03;;;5.97;;
29422;SDS011;16399;51.686;8.684;2023-11-21T15:06:48;9.78;;;5.28;;
29422;SDS011;16399;51.686;8.684;2023-11-21T15:09:52;8.93;;;4.92;;
29422;SDS011;16399;51.686;8.684;2023-11-21T15:12:54;9.08;;;5.50;;
29422;SDS011;16399;51.686;8.684;2023-11-21T15:15:58;14.35;;;6.42;;
29422;SDS011;16399;51.686;8.684;2023-11-21T15:19:02;10.55;;;5.22;;
29422;SDS011;16399;51.686;8.684;2023-11-21T15:22:06;9.90;;;5.83;;
29422;SDS011;16399;51.686;8.684;2023-11-21T15:25:08;13.58;;;6.42;;
29422;SDS011;16399;51.686;8.684;2023-11-21T15:28:10;9.83;;;5.28;;
29422;SDS011;16399;51.686;8.684;2023-11-21T15:31:13;9.15;;;5.30;;
29422;SDS011;16399;51.686;8.684;2023-11-21T15:34:17;11.38;;;5.70;;
29422;SDS011;16399;51.686;8.684;2023-11-21T15:37:19;9.58;;;5.35;;
29422;SDS011;16399;51.686;8.684;2023-11-21T15:40:21;10.78;;;5.17;;
29422;SDS011;16399;51.686;8.684;2023-11-21T15:43:24;10.90;;;5.00;;
29422;SDS011;16399;51.686;8.684;2023-11-21T15:46:28;8.85;;;4.60;;
29422;SDS011;16399;51.686;8.684;2023-11-21T15:49:31;8.17;;;4.53;;
29422;SDS011;16399;51.686;8.684;2023-11-21T15:52:36;11.95;;;4.97;;
29422;SDS011;16399;51.686;8.684;2023-11-21T15:55:38;8.13;;;4.70;;
29422;SDS011;16399;51.686;8.684;2023-11-21T15:58:42;10.35;;;5.20;;
29422;SDS011;16399;51.686;8.684;2023-11-21T16:01:46;9.95;;;4.75;;
29422;SDS011;16399;51.686;8.684;2023-11-21T16:04:49;10.23;;;5.78;;
29422;SDS011;16399;51.686;8.684;2023-11-21T16:07:51;9.48;;;4.95;;
29422;SDS011;16399;51.686;8.684;2023-11-21T16:10:55;12.13;;;6.37;;
29422;SDS011;16399;51.686;8.684;2023-11-21T16:13:57;12.50;;;6.35;;
29422;SDS011;16399;51.686;8.684;2023-11-21T16:16:59;13.72;;;8.78;;
29422;SDS011;16399;51.686;8.684;2023-11-21T16:20:02;10.82;;;6.03;;
29422;SDS011;16399;51.686;8.684;2023-11-21T16:23:07;9.80;;;5.85;;
29422;SDS011;16399;51.686;8.684;2023-11-21T16:26:09;16.07;;;6.58;;
29422;SDS011;16399;51.686;8.684;2023-11-21T16:29:12;13.53;;;7.10;;
29422;SDS011;16399;51.686;8.684;2023-11-21T16:32:15;14.30;;;7.70;;
29422;SDS011;16399;51.686;8.684;2023-11-21T16:35:19;10.50;;;6.03;;
29422;SDS011;16399;51.686;8.684;2023-11-21T16:38:21;10.08;;;5.70;;
29422;SDS011;16399;51.686;8.684;2023-11-21T16:41:23;10.55;;;5.50;;
29422;SDS011;16399;51.686;8.684;2023-11-21T16:44:26;10.78;;;5.90;;
29422;SDS011;16399;51.686;8.684;2023-11-21T16:47:29;10.50;;;6.10;;
29422;SDS011;16399;51.686;8.684;2023-11-21T16:50:33;12.68;;;6.05;;
29422;SDS011;16399;51.686;8.684;2023-11-21T16:53:36;11.57;;;6.08;;
29422;SDS011;16399;51.686;8.684;2023-11-21T16:56:40;11.08;;;6.25;;
29422;SDS011;16399;51.686;8.684;2023-11-21T16:59:44;10.50;;;5.63;;
29422;SDS011;16399;51.686;8.684;2023-11-21T17:02:48;11.57;;;6.42;;
29422;SDS011;16399;51.686;8.684;2023-11-21T17:05:50;11.95;;;5.95;;
29422;SDS011;16399;51.686;8.684;2023-11-21T17:08:53;12.47;;;7.42;;
29422;SDS011;16399;51.686;8.684;2023-11-21T17:11:56;12.65;;;6.47;;
29422;SDS011;16399;51.686;8.684;2023-11-21T17:14:59;10.20;;;5.72;;
29422;SDS011;16399;51.686;8.684;2023-11-21T17:18:01;10.98;;;6.70;;
29422;SDS011;16399;51.686;8.684;2023-11-21T17:21:03;11.85;;;6.37;;
29422;SDS011;16399;51.686;8.684;2023-11-21T17:24:06;15.80;;;7.28;;
29422;SDS011;16399;51.686;8.684;2023-11-21T17:27:10;12.73;;;6.53;;
29422;SDS011;16399;51.686;8.684;2023-11-21T17:30:12;11.40;;;7.05;;
29422;SDS011;16399;51.686;8.684;2023-11-21T17:33:15;11.15;;;6.20;;
29422;SDS011;16399;51.686;8.684;2023-11-21T17:36:18;11.20;;;6.53;;
29422;SDS011;16399;51.686;8.684;2023-11-21T17:39:21;11.08;;;6.75;;
29422;SDS011;16399;51.686;8.684;2023-11-21T17:42:23;12.98;;;6.25;;
29422;SDS011;16399;51.686;8.684;2023-11-21T17:45:26;11.55;;;6.08;;
29422;SDS011;16399;51.686;8.684;2023-11-21T17:48:28;13.88;;;7.08;;
29422;SDS011;16399;51.686;8.684;2023-11-21T17:51:31;11.65;;;6.35;;
29422;SDS011;16399;51.686;8.684;2023-11-21T17:54:35;11.23;;;6.23;;
29422;SDS011;16399;51.686;8.684;2023-11-21T17:57:39;11.33;;;6.60;;
29422;SDS011;16399;51.686;8.684;2023-11-21T18:00:42;11.48;;;6.83;;
29422;SDS011;16399;51.686;8.684;2023-11-21T18:03:47;13.03;;;6.97;;
29422;SDS011;16399;51.686;8.684;2023-11-21T18:06:50;12.03;;;6.90;;
29422;SDS011;16399;51.686;8.684;2023-11-21T18:09:54;11.97;;;8.68;;
29422;SDS011;16399;51.686;8.684;2023-11-21T18:12:56;16.05;;;10.43;;
29422;SDS011;16399;51.686;8.684;2023-11-21T18:15:58;13.05;;;7.17;;
29422;SDS011;16399;51.686;8.684;2023-11-21T18:19:01;10.78;;;6.47;;
29422;SDS011;16399;51.686;8.684;2023-11-21T18:22:03;12.25;;;7.33;;
29422;SDS011;16399;51.686;8.684;2023-11-21T18:25:06;11.33;;;6.83;;